Time;durP1;ratioP1;P1;durP2;ratioP2;P2;SDS_P1;SDS_P2;PMS_P1;PMS_P2;Temp;Humidity;BMP_temperature;BMP_pressure;BME280_temperature;BME280_humidity;BME280_pressure;Samples;Min_cycle;Max_cycle;Signal;HPM_P1;HPM_P2
2022/03/13 00:00:55;;;;;;;29.93;10.90;;;-3.00;1.00;;;;;;4497049;27;657639;-72
2022/03/13 00:03:43;;;;;;;36.90;11.77;;;-3.00;1.00;;;;;;4446143;27;659199;-72
2022/03/13 00:06:33;;;;;;;39.60;11.10;;;-3.10;1.00;;;;;;4493142;27;657488;-72
2022/03/13 00:09:21;;;;;;;40.70;11.70;;;-3.10;1.00;;;;;;4496751;27;657596;-71
2022/03/13 00:12:11;;;;;;;40.03;11.83;;;-3.10;1.00;;;;;;4471812;27;658907;-72
2022/03/13 00:15:12;;;;;;;43.70;12.55;;;-3.20;1.00;;;;;;4469512;27;657836;-72
2022/03/13 00:18:00;;;;;;;35.27;12.60;;;-3.20;1.00;;;;;;4470771;27;657639;-72
2022/03/13 00:20:48;;;;;;;30.23;10.40;;;-3.20;1.00;;;;;;4472868;27;659223;-72
2022/03/13 00:23:35;;;;;;;37.00;9.93;;;-3.30;1.00;;;;;;4495219;27;657969;-72
2022/03/13 00:26:23;;;;;;;35.13;10.93;;;-3.30;1.00;;;;;;4467344;27;658064;-71
2022/03/13 00:29:12;;;;;;;41.77;11.47;;;-3.30;1.00;;;;;;4494298;27;657725;-72
2022/03/13 00:31:59;;;;;;;49.13;13.00;;;-3.40;1.00;;;;;;4470464;27;657909;-71
2022/03/13 00:34:46;;;;;;;64.20;14.40;;;-3.40;1.00;;;;;;4476695;27;658388;-71
2022/03/13 00:37:34;;;;;;;80.50;17.23;;;-3.40;1.00;;;;;;4495763;27;658061;-71
2022/03/13 00:40:21;;;;;;;62.83;16.20;;;-3.40;1.00;;;;;;4473467;27;657643;-71
2022/03/13 00:43:09;;;;;;;61.43;15.63;;;-3.40;1.00;;;;;;4494794;27;659168;-71
2022/03/13 00:45:58;;;;;;;57.53;15.13;;;-3.40;1.00;;;;;;4470751;27;658474;-71
2022/03/13 00:48:46;;;;;;;63.37;17.03;;;-3.40;1.00;;;;;;4489157;27;658802;-71
2022/03/13 00:51:33;;;;;;;69.07;18.15;;;-3.40;1.00;;;;;;4474648;27;658154;-71
2022/03/13 00:54:21;;;;;;;59.37;16.60;;;-3.40;1.00;;;;;;4487256;27;657775;-71
2022/03/13 00:57:09;;;;;;;56.70;17.70;;;-3.50;1.00;;;;;;4500734;27;659167;-71
2022/03/13 00:59:56;;;;;;;61.40;17.03;;;-3.40;1.00;;;;;;4480315;27;657275;-71
2022/03/13 01:02:45;;;;;;;62.07;17.83;;;-3.40;1.00;;;;;;4488730;27;658975;-72
2022/03/13 01:05:32;;;;;;;62.87;17.50;;;-3.40;1.00;;;;;;4470942;27;658824;-71
2022/03/13 01:08:20;;;;;;;67.63;18.35;;;-3.40;1.00;;;;;;4494690;27;657848;-71
2022/03/13 01:11:07;;;;;;;57.73;17.07;;;-3.50;1.00;;;;;;4470142;27;658747;-72
2022/03/13 01:13:55;;;;;;;56.65;17.85;;;-3.50;1.00;;;;;;4489172;27;657800;-71
2022/03/13 01:16:43;;;;;;;56.57;15.77;;;-3.50;1.00;;;;;;4469769;27;657877;-71
2022/03/13 01:19:32;;;;;;;49.40;15.18;;;-3.50;1.00;;;;;;4481614;27;657636;-71
2022/03/13 01:22:20;;;;;;;51.63;15.93;;;-3.50;1.00;;;;;;4488212;27;658613;-71
2022/03/13 01:25:08;;;;;;;47.57;14.30;;;-3.50;1.00;;;;;;4475697;27;657563;-71
2022/03/13 01:27:55;;;;;;;48.23;14.23;;;-3.60;1.00;;;;;;4489004;27;657613;-71
2022/03/13 01:30:43;;;;;;;46.17;15.37;;;-3.60;1.00;;;;;;4471712;27;659267;-71
2022/03/13 01:33:31;;;;;;;42.00;15.90;;;-3.60;1.00;;;;;;4496335;27;657909;-72
2022/03/13 01:36:20;;;;;;;45.97;15.33;;;-3.60;1.00;;;;;;4472548;27;658395;-72
2022/03/13 01:39:07;;;;;;;40.73;14.83;;;-3.70;1.00;;;;;;4475100;27;657438;-72
2022/03/13 01:41:55;;;;;;;44.77;14.67;;;-3.70;1.00;;;;;;4497038;27;658609;-72
2022/03/13 01:44:42;;;;;;;38.87;13.87;;;-3.70;1.00;;;;;;4475000;27;657686;-72
2022/03/13 01:47:29;;;;;;;43.70;14.93;;;-3.70;1.00;;;;;;4494973;27;658050;-72
2022/03/13 01:50:18;;;;;;;40.60;14.38;;;-3.70;1.00;;;;;;4470002;27;657685;-72
2022/03/13 01:53:07;;;;;;;40.33;13.77;;;-3.70;1.00;;;;;;4486857;27;657044;-72
2022/03/13 01:55:56;;;;;;;37.53;12.30;;;-3.70;1.00;;;;;;4464742;27;658373;-72
2022/03/13 01:58:44;;;;;;;40.97;13.20;;;-3.70;1.00;;;;;;4464068;27;658135;-72
2022/03/13 02:01:31;;;;;;;38.13;13.52;;;-3.80;1.00;;;;;;4475355;27;657444;-72
2022/03/13 02:04:26;;;;;;;36.77;12.23;;;-3.80;1.00;;;;;;4492880;27;658136;-72
2022/03/13 02:07:14;;;;;;;39.17;12.20;;;-3.80;1.00;;;;;;4463703;27;658019;-72
2022/03/13 02:10:03;;;;;;;33.47;11.70;;;-3.80;1.00;;;;;;4468353;27;657672;-71
2022/03/13 02:12:50;;;;;;;40.93;13.40;;;-3.80;1.00;;;;;;4487828;27;657144;-72
2022/03/13 02:15:38;;;;;;;35.10;13.93;;;-3.80;1.00;;;;;;4463835;27;659529;-72
2022/03/13 02:18:25;;;;;;;40.33;13.53;;;-3.90;1.00;;;;;;4496118;27;658182;-72
2022/03/13 02:21:13;;;;;;;39.80;13.20;;;-3.90;1.00;;;;;;4473911;27;658992;-72
2022/03/13 02:24:02;;;;;;;32.67;12.07;;;-3.90;1.00;;;;;;4488862;27;658725;-72
2022/03/13 02:26:57;;;;;;;31.83;12.00;;;-3.90;1.00;;;;;;4471377;27;658681;-72
2022/03/13 02:29:44;;;;;;;34.60;11.60;;;-3.90;1.00;;;;;;4462354;27;658366;-72
2022/03/13 02:32:32;;;;;;;32.85;11.05;;;-3.90;1.00;;;;;;4464266;27;657462;-72
2022/03/13 02:35:19;;;;;;;29.27;10.97;;;-4.00;1.00;;;;;;4486141;27;659160;-72
2022/03/13 02:38:07;;;;;;;32.23;11.60;;;-4.00;1.00;;;;;;4477346;27;657623;-72
2022/03/13 02:40:56;;;;;;;34.50;11.43;;;-4.00;1.00;;;;;;4487658;27;658437;-72
2022/03/13 02:43:43;;;;;;;38.43;12.50;;;-4.00;1.00;;;;;;4468202;27;658382;-72
2022/03/13 02:46:52;;;;;;;27.67;11.67;;;-4.00;1.00;;;;;;4482045;27;657657;-73
2022/03/13 02:49:39;;;;;;;35.60;11.70;;;-4.00;1.00;;;;;;4461842;27;658239;-72
2022/03/13 02:52:27;;;;;;;35.10;11.47;;;-4.00;1.00;;;;;;4466834;27;657588;-72
2022/03/13 02:55:14;;;;;;;27.37;9.33;;;-4.00;1.00;;;;;;4486329;27;657970;-72
2022/03/13 02:58:03;;;;;;;25.17;9.83;;;-4.00;1.00;;;;;;4473646;27;657714;-72
2022/03/13 03:00:52;;;;;;;28.33;9.87;;;-4.00;1.00;;;;;;4482725;27;656687;-72
2022/03/13 03:03:40;;;;;;;23.40;8.95;;;-4.00;1.00;;;;;;4488919;27;656871;-72
2022/03/13 03:06:29;;;;;;;24.80;9.13;;;-4.00;1.00;;;;;;4470742;27;656552;-72
2022/03/13 03:09:17;;;;;;;23.47;8.67;;;-4.00;1.00;;;;;;4475677;27;657007;-72
2022/03/13 03:12:06;;;;;;;25.87;8.97;;;-4.00;1.00;;;;;;4493024;27;657000;-72
2022/03/13 03:14:55;;;;;;;23.50;8.43;;;-4.00;1.00;;;;;;4468869;27;656733;-73
2022/03/13 03:17:42;;;;;;;23.27;8.17;;;-4.00;1.00;;;;;;4474689;27;656369;-72
2022/03/13 03:20:30;;;;;;;22.90;7.77;;;-4.00;1.00;;;;;;4494783;27;657238;-72
2022/03/13 03:23:17;;;;;;;20.83;7.93;;;-4.00;1.00;;;;;;4474367;27;657672;-72
2022/03/13 03:26:06;;;;;;;21.48;8.10;;;-4.00;1.00;;;;;;4498188;27;657660;-72
2022/03/13 03:28:54;;;;;;;18.55;7.07;;;-4.00;1.00;;;;;;4465270;27;657133;-72
2022/03/13 03:31:43;;;;;;;22.73;8.30;;;-4.00;1.00;;;;;;4476996;27;656751;-72
2022/03/13 03:34:31;;;;;;;19.67;7.47;;;-4.00;1.00;;;;;;4482016;27;656885;-73
2022/03/13 03:37:18;;;;;;;25.23;7.73;;;-4.00;1.00;;;;;;4490680;27;658566;-72
2022/03/13 03:40:07;;;;;;;24.67;8.03;;;-4.10;1.00;;;;;;4482725;27;656813;-72
2022/03/13 03:42:56;;;;;;;21.03;7.70;;;-4.10;1.00;;;;;;4498457;27;656368;-71
2022/03/13 03:45:43;;;;;;;22.43;8.07;;;-4.10;1.00;;;;;;4475653;27;657676;-72
2022/03/13 03:48:32;;;;;;;26.37;8.63;;;-4.10;1.00;;;;;;4470103;27;656597;-73
2022/03/13 03:51:20;;;;;;;24.80;7.50;;;-4.10;1.00;;;;;;4479628;27;656948;-72
2022/03/13 03:54:08;;;;;;;20.87;7.07;;;-4.20;1.00;;;;;;4459714;27;656102;-73
2022/03/13 03:56:56;;;;;;;26.33;7.40;;;-4.20;1.00;;;;;;4479794;27;656444;-72
2022/03/13 03:59:43;;;;;;;25.10;7.67;;;-4.20;1.00;;;;;;4479535;27;658360;-73
2022/03/13 04:02:31;;;;;;;19.10;7.17;;;-4.20;1.00;;;;;;4463907;27;656985;-72
2022/03/13 04:05:20;;;;;;;21.27;7.67;;;-4.10;1.00;;;;;;4477486;27;658080;-73
2022/03/13 04:08:07;;;;;;;24.00;7.87;;;-4.20;1.00;;;;;;4458215;27;658272;-72
2022/03/13 04:10:54;;;;;;;21.27;8.00;;;-4.20;1.00;;;;;;4482445;27;657346;-73
2022/03/13 04:13:42;;;;;;;21.33;7.13;;;-4.20;1.00;;;;;;4460968;27;656620;-73
2022/03/13 04:16:29;;;;;;;22.83;7.70;;;-4.20;1.00;;;;;;4476205;27;657586;-73
2022/03/13 04:19:17;;;;;;;38.87;9.77;;;-4.30;1.00;;;;;;4457299;27;657827;-72
2022/03/13 04:22:06;;;;;;;28.90;9.13;;;-4.30;1.00;;;;;;4476821;27;658250;-73
2022/03/13 04:24:53;;;;;;;29.00;9.60;;;-4.30;1.00;;;;;;4452939;27;657283;-73
2022/03/13 04:27:41;;;;;;;30.17;10.17;;;-4.30;1.00;;;;;;4473461;27;656473;-72
2022/03/13 04:30:31;;;;;;;29.90;10.23;;;-4.40;1.00;;;;;;4482894;27;657999;-72
2022/03/13 04:33:18;;;;;;;27.47;10.40;;;-4.40;1.00;;;;;;4453607;27;658016;-72
2022/03/13 04:36:10;;;;;;;30.27;10.57;;;-4.40;1.00;;;;;;4474971;27;657931;-73
2022/03/13 04:38:59;;;;;;;29.30;10.10;;;-4.40;1.00;;;;;;4460063;27;657376;-73
2022/03/13 04:41:47;;;;;;;32.67;9.73;;;-4.50;1.00;;;;;;4462120;27;657709;-73
2022/03/13 04:44:35;;;;;;;28.03;9.67;;;-4.50;1.00;;;;;;4478327;27;657441;-73
2022/03/13 04:47:22;;;;;;;27.95;10.45;;;-4.40;1.00;;;;;;4457495;27;657039;-73
2022/03/13 04:50:10;;;;;;;26.90;9.87;;;-4.40;1.00;;;;;;4499548;27;658219;-73
2022/03/13 04:56:12;;;;;;;28.07;9.10;;;-4.50;1.00;;;;;;4430713;28;657679;-73
2022/03/13 04:59:00;;;;;;;30.77;10.57;;;-4.50;1.00;;;;;;4435243;28;656878;-71
2022/03/13 05:01:47;;;;;;;31.17;12.03;;;-4.50;1.00;;;;;;4434256;28;657181;-73
2022/03/13 05:04:35;;;;;;;36.43;13.10;;;-4.40;1.00;;;;;;4460987;27;657784;-73
2022/03/13 05:07:23;;;;;;;29.43;11.83;;;-4.40;1.00;;;;;;4433459;28;659192;-73
2022/03/13 05:10:11;;;;;;;28.27;10.50;;;-4.40;1.00;;;;;;4456080;27;657981;-72
2022/03/13 05:13:00;;;;;;;28.55;11.73;;;-4.40;1.00;;;;;;4462593;27;657903;-73
2022/03/13 05:15:48;;;;;;;28.47;10.47;;;-4.40;1.00;;;;;;4437239;27;661017;-73
2022/03/13 05:18:36;;;;;;;32.67;11.30;;;-4.30;1.00;;;;;;4454753;27;657178;-73
2022/03/13 05:21:24;;;;;;;31.37;11.60;;;-4.20;1.00;;;;;;4438241;27;658540;-73
2022/03/13 05:24:11;;;;;;;34.57;11.97;;;-4.10;1.00;;;;;;4441170;28;657008;-73
2022/03/13 05:26:59;;;;;;;37.63;12.50;;;-4.10;1.00;;;;;;4456325;28;658810;-73
2022/03/13 05:29:47;;;;;;;29.33;10.43;;;-4.10;1.00;;;;;;4458175;27;657553;-73
2022/03/13 05:32:35;;;;;;;31.03;11.00;;;-4.10;1.00;;;;;;4497664;27;658176;-73
2022/03/13 05:35:23;;;;;;;28.00;10.47;;;-4.00;1.00;;;;;;4472848;27;658864;-73
2022/03/13 05:38:10;;;;;;;36.07;12.40;;;-4.00;1.00;;;;;;4488454;27;657438;-73
2022/03/13 05:40:58;;;;;;;38.93;13.43;;;-3.90;1.00;;;;;;4473031;27;658720;-73
2022/03/13 05:43:46;;;;;;;36.27;14.17;;;-3.90;1.00;;;;;;4488736;27;657697;-72
2022/03/13 05:46:35;;;;;;;38.73;14.20;;;-3.80;1.00;;;;;;4492725;27;658530;-73
2022/03/13 05:49:23;;;;;;;41.20;14.43;;;-3.70;1.00;;;;;;4470395;27;658349;-73
2022/03/13 05:52:13;;;;;;;38.93;14.63;;;-3.70;1.00;;;;;;4486934;27;658076;-73
2022/03/13 05:55:01;;;;;;;44.47;15.15;;;-3.60;1.00;;;;;;4462658;27;657575;-72
2022/03/13 05:57:48;;;;;;;45.40;15.10;;;-3.50;1.00;;;;;;4488507;27;661262;-73
2022/03/13 06:00:36;;;;;;;41.13;14.87;;;-3.40;1.00;;;;;;4470092;27;657665;-72
2022/03/13 06:03:25;;;;;;;44.80;15.93;;;-3.30;1.00;;;;;;4490903;27;659321;-73
2022/03/13 06:06:13;;;;;;;48.80;16.80;;;-3.20;1.00;;;;;;4468533;27;657449;-72
2022/03/13 06:09:00;;;;;;;38.93;14.77;;;-3.00;1.00;;;;;;4488479;27;657242;-72
2022/03/13 06:11:47;;;;;;;49.57;16.80;;;-2.90;1.00;;;;;;4464517;27;658896;-73
2022/03/13 06:14:35;;;;;;;44.60;15.43;;;-2.80;1.00;;;;;;4488249;27;658107;-72
2022/03/13 06:17:22;;;;;;;43.63;15.20;;;-2.60;1.00;;;;;;4469551;27;657870;-72
2022/03/13 06:20:12;;;;;;;44.37;17.40;;;-2.50;1.00;;;;;;4486044;27;658128;-72
2022/03/13 06:23:00;;;;;;;50.13;18.07;;;-2.40;1.00;;;;;;4459511;27;657420;-72
2022/03/13 06:25:48;;;;;;;48.27;16.30;;;-2.10;1.00;;;;;;4469940;27;659138;-72
2022/03/13 06:28:36;;;;;;;53.83;19.63;;;-1.90;1.00;;;;;;4490281;27;657258;-72
2022/03/13 06:31:24;;;;;;;68.73;20.97;;;-1.70;1.00;;;;;;4485263;27;658238;-72
2022/03/13 06:34:11;;;;;;;75.80;22.97;;;-1.40;1.00;;;;;;4467260;27;659062;-72
2022/03/13 06:37:00;;;;;;;75.03;25.10;;;-1.20;1.00;;;;;;4498881;27;658587;-73
2022/03/13 06:39:50;;;;;;;76.57;24.90;;;-0.90;1.00;;;;;;4471993;27;658408;-72
2022/03/13 06:42:38;;;;;;;79.07;24.60;;;-0.50;1.00;;;;;;4476185;27;659028;-73
2022/03/13 06:45:25;;;;;;;71.50;24.53;;;-0.30;1.00;;;;;;4498530;27;657909;-72
2022/03/13 06:48:15;;;;;;;55.27;20.47;;;0.00;1.00;;;;;;4472578;27;659112;-72
2022/03/13 06:51:03;;;;;;;63.43;21.90;;;0.20;1.00;;;;;;4472050;27;657377;-72
2022/03/13 06:53:53;;;;;;;64.40;22.83;;;0.50;1.00;;;;;;4496264;27;658449;-72
2022/03/13 06:56:41;;;;;;;71.33;25.43;;;0.70;1.00;;;;;;4491725;27;657097;-72
2022/03/13 06:59:28;;;;;;;78.17;27.07;;;0.90;1.00;;;;;;4469307;27;657482;-72
2022/03/13 07:02:16;;;;;;;80.77;28.37;;;1.10;1.00;;;;;;4484564;27;656623;-71
2022/03/13 07:05:05;;;;;;;83.10;28.20;;;1.30;1.00;;;;;;4497522;27;657648;-72
2022/03/13 07:08:00;;;;;;;87.07;32.27;;;1.50;1.00;;;;;;4471118;27;660371;-72
2022/03/13 07:10:51;;;;;;;82.83;32.67;;;1.70;1.00;;;;;;4454214;27;656972;-73
2022/03/13 07:13:40;;;;;;;93.43;34.67;;;1.80;1.00;;;;;;4476812;27;657538;-72
2022/03/13 07:16:28;;;;;;;82.63;31.90;;;2.00;1.00;;;;;;4471794;27;657310;-72
2022/03/13 07:19:16;;;;;;;76.40;28.87;;;2.10;1.00;;;;;;4488748;27;656539;-72
2022/03/13 07:22:04;;;;;;;73.77;27.83;;;2.30;1.00;;;;;;4495130;27;658312;-72
2022/03/13 07:24:52;;;;;;;81.43;31.40;;;2.40;1.00;;;;;;4472196;27;656711;-72
2022/03/13 07:27:41;;;;;;;78.60;29.63;;;2.50;1.00;;;;;;4494095;27;656620;-72
2022/03/13 07:30:28;;;;;;;75.30;29.60;;;2.60;1.00;;;;;;4467586;27;657344;-72
2022/03/13 07:33:16;;;;;;;79.73;29.73;;;2.80;1.00;;;;;;4488918;27;657434;-72
2022/03/13 07:36:04;;;;;;;79.43;29.67;;;2.90;1.00;;;;;;4498633;27;656700;-72
2022/03/13 07:38:51;;;;;;;59.83;23.50;;;3.20;1.00;;;;;;4477065;27;657773;-71
2022/03/13 07:41:39;;;;;;;51.83;20.93;;;3.40;1.00;;;;;;4491966;27;657500;-71
2022/03/13 07:44:28;;;;;;;51.47;19.43;;;3.70;1.00;;;;;;4473699;27;656630;-72
2022/03/13 07:47:16;;;;;;;47.57;19.87;;;4.00;1.00;;;;;;4490175;27;656122;-72
2022/03/13 07:50:04;;;;;;;49.45;20.52;;;4.20;1.00;;;;;;4474323;27;657821;-72
2022/03/13 07:52:51;;;;;;;55.47;20.03;;;4.30;1.00;;;;;;4472056;27;658459;-71
2022/03/13 07:55:39;;;;;;;50.30;19.67;;;4.50;1.00;;;;;;4492088;27;657641;-71
2022/03/13 07:58:26;;;;;;;52.73;20.93;;;4.60;1.00;;;;;;4470351;27;657036;-71
2022/03/13 08:01:15;;;;;;;52.37;20.93;;;4.80;1.00;;;;;;4493185;27;657692;-72
2022/03/13 08:04:04;;;;;;;51.70;19.47;;;4.90;1.00;;;;;;4467514;27;656469;-71
2022/03/13 08:06:51;;;;;;;48.87;19.03;;;4.90;1.00;;;;;;4473071;27;656762;-71
2022/03/13 08:09:40;;;;;;;51.27;19.10;;;5.00;1.00;;;;;;4498343;27;658023;-71
2022/03/13 08:12:27;;;;;;;54.60;19.97;;;5.00;1.00;;;;;;4475646;27;657570;-71
2022/03/13 08:15:15;;;;;;;48.27;18.07;;;5.10;1.00;;;;;;4495120;27;657231;-72
2022/03/13 08:18:04;;;;;;;41.63;17.47;;;5.20;1.00;;;;;;4476813;27;657325;-71
2022/03/13 08:20:52;;;;;;;39.22;15.25;;;5.30;1.00;;;;;;4471287;27;657183;-71
2022/03/13 08:23:39;;;;;;;42.70;15.67;;;5.40;1.00;;;;;;4495554;27;657280;-71
2022/03/13 08:26:27;;;;;;;35.00;14.82;;;5.40;1.00;;;;;;4482751;27;656792;-71
2022/03/13 08:29:15;;;;;;;36.15;14.45;;;5.50;1.00;;;;;;4495249;27;656798;-71
2022/03/13 08:32:03;;;;;;;31.57;13.87;;;5.60;1.00;;;;;;4464922;27;657498;-71
2022/03/13 08:34:58;;;;;;;23.57;9.93;;;5.70;1.00;;;;;;4479664;27;657031;-71
2022/03/13 08:37:46;;;;;;;30.87;11.47;;;5.80;1.00;;;;;;4465209;27;655034;-71
2022/03/13 08:40:33;;;;;;;30.70;12.77;;;6.10;1.00;;;;;;4491828;27;658010;-71
2022/03/13 08:43:22;;;;;;;29.45;11.48;;;6.10;1.00;;;;;;4471149;27;656181;-71
2022/03/13 08:46:12;;;;;;;31.47;11.40;;;6.20;1.00;;;;;;4490160;27;658265;-71
2022/03/13 08:49:00;;;;;;;29.37;11.37;;;6.20;1.00;;;;;;4471230;27;657441;-71
2022/03/13 08:51:49;;;;;;;27.83;12.23;;;6.20;1.00;;;;;;4474340;27;657125;-71
2022/03/13 08:54:37;;;;;;;33.00;11.13;;;6.20;1.00;;;;;;4477404;27;657262;-71
2022/03/13 08:57:24;;;;;;;28.58;12.20;;;6.20;1.00;;;;;;4496533;27;657418;-71
2022/03/13 09:00:14;;;;;;;26.93;11.23;;;6.30;1.00;;;;;;4477498;27;656576;-71
2022/03/13 09:03:02;;;;;;;30.13;11.97;;;6.50;1.00;;;;;;4475677;27;656677;-71
2022/03/13 09:05:49;;;;;;;27.27;11.60;;;6.70;1.00;;;;;;4492887;27;657396;-71
2022/03/13 09:08:38;;;;;;;26.87;11.27;;;7.00;1.00;;;;;;4479282;27;656105;-71
2022/03/13 09:11:25;;;;;;;24.47;11.13;;;7.20;1.00;;;;;;4495143;27;657329;-71
2022/03/13 09:14:13;;;;;;;23.67;10.50;;;7.50;1.00;;;;;;4471507;27;657670;-71
2022/03/13 09:17:00;;;;;;;22.92;10.52;;;7.70;1.00;;;;;;4492356;27;658005;-71
2022/03/13 09:19:47;;;;;;;26.67;11.07;;;7.90;1.00;;;;;;4478041;27;657422;-71
2022/03/13 09:22:36;;;;;;;23.60;10.40;;;8.30;1.00;;;;;;4494147;27;656513;-71
2022/03/13 09:25:25;;;;;;;25.03;11.07;;;8.30;1.00;;;;;;4496241;27;657648;-71
2022/03/13 09:28:12;;;;;;;24.43;10.97;;;8.50;1.00;;;;;;4475289;27;656701;-71
2022/03/13 09:31:00;;;;;;;24.83;10.93;;;8.70;1.00;;;;;;4491789;27;656653;-71
2022/03/13 09:33:47;;;;;;;23.67;9.13;;;8.80;1.00;;;;;;4473696;27;657477;-71
2022/03/13 09:36:36;;;;;;;20.93;9.93;;;9.10;1.00;;;;;;4496741;27;655807;-71
2022/03/13 09:39:23;;;;;;;20.03;9.60;;;9.40;1.00;;;;;;4478446;27;656573;-71
2022/03/13 09:42:12;;;;;;;19.67;7.53;;;9.70;1.00;;;;;;4496565;27;656433;-71
2022/03/13 09:45:00;;;;;;;15.37;6.30;;;9.80;1.00;;;;;;4501860;27;655386;-71
2022/03/13 09:47:48;;;;;;;14.67;7.23;;;10.20;1.00;;;;;;4475045;27;655778;-71
2022/03/13 09:50:35;;;;;;;16.60;7.27;;;10.50;1.00;;;;;;4497899;27;656966;-71
2022/03/13 09:53:23;;;;;;;18.80;7.70;;;10.80;1.00;;;;;;4477127;27;657516;-71
2022/03/13 09:56:11;;;;;;;17.03;7.80;;;11.10;1.00;;;;;;4498553;27;657146;-71
2022/03/13 09:59:00;;;;;;;19.90;8.17;;;11.30;1.00;;;;;;4504249;27;658504;-71
2022/03/13 10:01:47;;;;;;;11.53;5.03;;;11.10;1.00;;;;;;4476494;27;656256;-71
2022/03/13 10:04:35;;;;;;;13.90;6.83;;;11.20;1.00;;;;;;4499498;27;656740;-71
2022/03/13 10:07:22;;;;;;;12.83;6.37;;;11.60;1.00;;;;;;4468341;27;656890;-71
2022/03/13 10:10:13;;;;;;;15.33;7.53;;;11.70;1.00;;;;;;4500191;27;657198;-72
2022/03/13 10:13:01;;;;;;;15.70;7.00;;;11.90;1.00;;;;;;4467202;27;656559;-71
2022/03/13 10:15:50;;;;;;;13.43;6.07;;;11.80;1.00;;;;;;4479721;27;657645;-71
2022/03/13 10:18:38;;;;;;;13.27;5.27;;;11.70;1.00;;;;;;4470491;27;657713;-71
2022/03/13 10:21:25;;;;;;;11.37;5.77;;;11.60;1.00;;;;;;4499766;27;656848;-71
2022/03/13 10:24:15;;;;;;;14.97;6.10;;;11.60;1.00;;;;;;4465249;27;658575;-70
2022/03/13 10:27:09;;;;;;;11.00;5.10;;;11.50;1.00;;;;;;4472665;27;656791;-71
2022/03/13 10:29:57;;;;;;;12.80;6.40;;;11.40;1.00;;;;;;4473074;27;657533;-71
2022/03/13 10:32:46;;;;;;;19.33;8.87;;;11.40;1.00;;;;;;4489481;27;656804;-71
2022/03/13 10:35:34;;;;;;;22.43;9.63;;;11.70;1.00;;;;;;4466622;27;657569;-71
2022/03/13 10:38:24;;;;;;;20.27;7.90;;;12.10;1.00;;;;;;4472024;27;656666;-71
2022/03/13 10:41:13;;;;;;;18.77;8.63;;;12.50;1.00;;;;;;4471303;27;657303;-71
2022/03/13 10:44:02;;;;;;;20.33;9.73;;;12.70;1.00;;;;;;4486997;27;657989;-70
2022/03/13 10:46:54;;;;;;;20.07;9.30;;;13.10;1.00;;;;;;4491815;27;657422;-71
2022/03/13 10:49:45;;;;;;;14.87;7.97;;;13.10;1.00;;;;;;4474859;27;656429;-71
2022/03/13 10:52:41;;;;;;;13.00;6.83;;;13.50;1.00;;;;;;4468043;27;656963;-71
2022/03/13 10:55:28;;;;;;;15.97;7.97;;;13.70;1.00;;;;;;4480637;27;657503;-70
2022/03/13 10:58:16;;;;;;;16.57;7.03;;;13.90;1.00;;;;;;4473065;27;656741;-71
2022/03/13 11:01:05;;;;;;;16.60;6.83;;;13.90;1.00;;;;;;4490074;27;657933;-71
2022/03/13 11:03:54;;;;;;;17.37;7.73;;;14.10;1.00;;;;;;4465203;27;657234;-71
2022/03/13 11:06:43;;;;;;;17.10;8.37;;;14.50;1.00;;;;;;4467812;27;656538;-71
2022/03/13 11:09:31;;;;;;;19.53;8.73;;;14.70;1.00;;;;;;4474560;27;657789;-71
2022/03/13 11:12:20;;;;;;;20.50;9.67;;;14.70;1.00;;;;;;4495152;27;657163;-71
2022/03/13 11:15:10;;;;;;;22.17;10.13;;;15.10;1.00;;;;;;4471300;27;657985;-71
2022/03/13 11:17:59;;;;;;;14.23;7.00;;;15.50;1.00;;;;;;4472197;27;659617;-71
2022/03/13 11:20:47;;;;;;;15.43;7.80;;;15.30;1.00;;;;;;4468392;27;656539;-71
2022/03/13 11:23:36;;;;;;;17.60;9.33;;;15.10;1.00;;;;;;4498205;27;657370;-71
2022/03/13 11:26:25;;;;;;;15.43;7.50;;;14.70;1.00;;;;;;4479217;27;657245;-71
2022/03/13 11:29:13;;;;;;;19.30;9.27;;;14.60;1.00;;;;;;4489543;27;657441;-71
2022/03/13 11:32:01;;;;;;;18.67;8.53;;;14.90;1.00;;;;;;4483316;27;657104;-72
2022/03/13 11:35:02;;;;;;;18.00;7.80;;;15.20;1.00;;;;;;4505523;27;657155;-71
2022/03/13 11:37:50;;;;;;;15.07;6.57;;;15.40;1.00;;;;;;4473871;27;657333;-71
2022/03/13 11:40:40;;;;;;;12.57;6.47;;;15.70;1.00;;;;;;4472650;27;659602;-71
2022/03/13 11:43:34;;;;;;;17.17;8.67;;;16.00;1.00;;;;;;4473066;27;656360;-70
2022/03/13 11:46:38;;;;;;;16.57;8.20;;;16.40;1.00;;;;;;4451019;27;656555;-71
2022/03/13 11:49:37;;;;;;;17.03;7.57;;;16.30;1.00;;;;;;4462180;27;656560;-71
2022/03/13 11:52:32;;;;;;;11.60;5.60;;;16.10;1.00;;;;;;4465838;27;657122;-71
2022/03/13 11:55:20;;;;;;;16.73;8.10;;;15.70;1.00;;;;;;4472914;27;656999;-71
2022/03/13 11:58:09;;;;;;;15.40;8.13;;;15.70;1.00;;;;;;4465241;27;657852;-70
2022/03/13 12:01:07;;;;;;;15.00;7.27;;;16.00;1.00;;;;;;4469743;27;656375;-69
2022/03/13 12:04:25;;;;;;;10.40;5.33;;;15.90;1.00;;;;;;4471744;27;656850;-70
2022/03/13 12:07:27;;;;;;;8.90;4.93;;;16.00;1.00;;;;;;4456598;27;657522;-71
2022/03/13 12:10:30;;;;;;;10.53;5.20;;;15.60;1.00;;;;;;4468489;27;656304;-71
2022/03/13 12:13:20;;;;;;;9.90;4.10;;;15.70;1.00;;;;;;4447516;27;658278;-71
2022/03/13 12:16:12;;;;;;;10.00;4.50;;;15.70;1.00;;;;;;4471536;27;656646;-71
2022/03/13 12:18:59;;;;;;;8.73;3.63;;;15.60;1.00;;;;;;4469693;27;657712;-71
2022/03/13 12:21:47;;;;;;;9.03;4.10;;;15.30;1.00;;;;;;4473584;27;656235;-73
2022/03/13 12:24:35;;;;;;;14.73;4.30;;;15.30;1.00;;;;;;4500133;27;656237;-71
2022/03/13 12:27:23;;;;;;;10.20;4.33;;;15.60;1.00;;;;;;4467167;27;658354;-71
2022/03/13 12:30:15;;;;;;;7.70;3.90;;;15.70;1.00;;;;;;4484033;27;657146;-71
2022/03/13 12:33:04;;;;;;;6.10;3.20;;;15.60;1.00;;;;;;4477663;27;656779;-71
2022/03/13 12:35:56;;;;;;;6.80;4.23;;;16.00;1.00;;;;;;4474520;27;655757;-71
2022/03/13 12:38:45;;;;;;;9.50;5.50;;;16.10;1.00;;;;;;4478975;27;656291;-71
2022/03/13 12:41:33;;;;;;;12.03;5.77;;;16.00;1.00;;;;;;4479923;27;656338;-71
2022/03/13 12:44:21;;;;;;;10.33;4.67;;;16.10;1.00;;;;;;4495435;27;656102;-71
2022/03/13 12:47:10;;;;;;;8.97;5.27;;;15.90;1.00;;;;;;4467781;27;657531;-71
2022/03/13 12:49:58;;;;;;;25.17;13.20;;;15.70;1.00;;;;;;4481217;27;656532;-71
2022/03/13 12:52:55;;;;;;;19.73;10.93;;;15.80;1.00;;;;;;4481714;27;657595;-71
2022/03/13 12:55:51;;;;;;;8.97;5.13;;;16.30;1.00;;;;;;4464484;27;657921;-75
2022/03/13 12:58:43;;;;;;;10.37;5.10;;;16.30;1.00;;;;;;4444573;27;655267;-74
2022/03/13 13:01:31;;;;;;;16.17;7.87;;;16.30;1.00;;;;;;4451983;27;656288;-72
2022/03/13 13:04:20;;;;;;;14.33;7.23;;;16.50;1.00;;;;;;4495727;27;657204;-73
2022/03/13 13:07:11;;;;;;;13.87;6.93;;;16.00;1.00;;;;;;4480403;27;657857;-73
2022/03/13 13:09:59;;;;;;;32.33;16.90;;;16.10;1.00;;;;;;4473867;27;657350;-74
2022/03/13 13:12:47;;;;;;;16.00;9.33;;;16.60;1.00;;;;;;4477964;27;657619;-73
2022/03/13 13:15:35;;;;;;;17.97;8.30;;;16.90;1.00;;;;;;4496967;27;657811;-74
2022/03/13 13:18:22;;;;;;;31.13;15.77;;;17.40;1.00;;;;;;4476951;27;657397;-73
2022/03/13 13:21:12;;;;;;;40.22;21.48;;;16.90;1.00;;;;;;4497171;27;658035;-71
2022/03/13 13:23:59;;;;;;;51.43;26.37;;;17.10;1.00;;;;;;4472702;27;658838;-71
2022/03/13 13:26:47;;;;;;;43.13;20.10;;;17.00;1.00;;;;;;4473880;27;657811;-71
2022/03/13 13:29:35;;;;;;;24.40;10.07;;;17.30;1.00;;;;;;4490631;27;657280;-71
2022/03/13 13:32:23;;;;;;;26.23;13.10;;;17.60;1.00;;;;;;4471312;27;657378;-71
2022/03/13 13:35:13;;;;;;;35.20;17.37;;;17.70;1.00;;;;;;4489869;27;657435;-70
2022/03/13 13:38:14;;;;;;;22.30;11.93;;;17.50;1.00;;;;;;4484507;27;657151;-70
2022/03/13 13:41:03;;;;;;;28.37;14.83;;;17.70;1.00;;;;;;4441374;27;658031;-71
2022/03/13 13:43:51;;;;;;;52.70;23.25;;;17.80;1.00;;;;;;4482355;27;657740;-71
2022/03/13 13:46:39;;;;;;;39.53;21.10;;;18.40;1.00;;;;;;4500081;27;660413;-71
2022/03/13 13:49:27;;;;;;;42.33;22.30;;;18.40;1.00;;;;;;4469007;27;657445;-71
2022/03/13 13:52:15;;;;;;;35.17;17.17;;;18.70;1.00;;;;;;4486167;27;657487;-72
2022/03/13 13:55:22;;;;;;;28.23;13.30;;;18.70;1.00;;;;;;4467450;27;657727;-71
2022/03/13 13:58:17;;;;;;;25.73;12.50;;;19.10;1.00;;;;;;4462504;27;657908;-71
2022/03/13 14:01:23;;;;;;;26.53;13.47;;;19.00;1.00;;;;;;4471635;27;657990;-71
2022/03/13 14:04:11;;;;;;;29.53;12.70;;;19.40;1.00;;;;;;4456272;27;658145;-71
2022/03/13 14:06:59;;;;;;;23.37;12.97;;;20.30;1.00;;;;;;4492263;27;658507;-71
2022/03/13 14:09:47;;;;;;;24.10;13.27;;;20.70;1.00;;;;;;4473431;27;657851;-71
2022/03/13 14:12:36;;;;;;;41.97;23.10;;;21.20;1.00;;;;;;4484866;27;658462;-71
2022/03/13 14:15:24;;;;;;;41.03;22.30;;;22.70;1.00;;;;;;4463276;27;658977;-71
2022/03/13 14:18:11;;;;;;;27.93;15.40;;;23.70;1.00;;;;;;4467268;27;657589;-71
2022/03/13 14:20:59;;;;;;;36.60;19.87;;;24.20;1.00;;;;;;4495185;27;658835;-71
2022/03/13 14:23:46;;;;;;;43.73;21.33;;;25.10;1.00;;;;;;4471543;27;658147;-71
2022/03/13 14:26:34;;;;;;;39.50;20.77;;;25.50;1.00;;;;;;4495089;27;658772;-71